Impacts METAR Board INFO
IDs:

KMIA - Miami Intl, FL, US

Updated at: 1406 UTC 15 Dec 2017
Potential Impact None Slight Moderate High
Time15/02Z 15/03Z 15/04Z 15/05Z 15/06Z 15/07Z 15/08Z 15/09Z 15/10Z 15/11Z 15/12Z 15/13Z 15/14Z
VIS10 10 10 10 10 10 10 10 10 8 10 7 10
CIG-- -- -- -- -- -- -- -- -- -- -- 250 250
CoverFEWCLRCLRCLRCLRCLRCLRCLRSCTFEWFEWBKNBKN
FltCatVFRVFRVFRVFRVFRVFRVFRVFRVFRVFRVFRVFRVFR
WX--------------------------
WDir2500027000000340000
WSpd3 0 0 3 0 0 0 0 0 3 0 0 0
WGst-- -- -- -- -- -- -- -- -- -- -- -- --
Raw hourly METARs
KMIA 150153Z 25003KT 10SM FEW250 18/11 A3011 RMK AO2 SLP196 T01780111 $
KMIA 150253Z 00000KT 10SM CLR 17/11 A3011 RMK AO2 SLP195 T01670106 50007 $
KMIA 150353Z 00000KT 10SM CLR 17/11 A3011 RMK AO2 SLP197 T01670111 $
KMIA 150453Z 27003KT 10SM CLR 16/12 A3011 RMK AO2 SLP195 T01560117 402280083 $
KMIA 150553Z 00000KT 10SM CLR 14/12 A3009 RMK AO2 SLP189 T01440117 10189 20128 58006 $
KMIA 150653Z 00000KT 10SM CLR 13/11 A3008 RMK AO2 SLP186 T01280111 $
KMIA 150753Z 00000KT 10SM CLR 13/12 A3007 RMK AO2 SLP181 T01330117 $
KMIA 150853Z 00000KT 10SM CLR 13/11 A3008 RMK AO2 SLP185 T01330111 55004 $
KMIA 150953Z 00000KT 10SM SCT250 13/12 A3009 RMK AO2 SLP188 T01330122 $
KMIA 151053Z 34003KT 8SM FEW250 13/12 A3008 RMK AO2 SLP186 T01330117 $
KMIA 151153Z 00000KT 10SM FEW250 13/12 A3010 RMK AO2 SLP192 T01330117 10144 20117 53007 $
KMIA 151253Z 00000KT 7SM BKN250 14/12 A3011 RMK AO2 SLP195 T01440122 $
KMIA 151353Z COR 00000KT 10SM FEW030 BKN250 19/14 A3012 RMK AO2 SLP200 T01940144